createdAt,value
2023-09-17T00:01:09.654Z,18.07
2023-09-17T00:04:34.780Z,18.030001
2023-09-17T00:07:59.989Z,18.02
2023-09-17T00:11:25.199Z,18
2023-09-17T00:14:50.371Z,18
2023-09-17T00:18:15.637Z,18
2023-09-17T00:21:40.795Z,17.99
2023-09-17T00:25:05.992Z,18
2023-09-17T00:28:31.228Z,18.030001
2023-09-17T00:31:56.470Z,18.059999
2023-09-17T00:35:21.673Z,18.030001
2023-09-17T00:38:46.804Z,17.950001
2023-09-17T00:42:12.030Z,17.93
2023-09-17T00:45:37.240Z,17.940001
2023-09-17T00:49:02.443Z,17.9
2023-09-17T00:52:27.727Z,17.9
2023-09-17T00:55:52.941Z,17.860001
2023-09-17T00:59:18.083Z,17.84
2023-09-17T01:02:43.346Z,17.860001
2023-09-17T01:06:08.472Z,17.860001
2023-09-17T01:09:33.717Z,17.85
2023-09-17T01:12:58.898Z,17.85
2023-09-17T01:16:24.164Z,17.860001
2023-09-17T01:19:49.329Z,17.889999
2023-09-17T01:23:14.521Z,17.92
2023-09-17T01:26:39.737Z,17.92
2023-09-17T01:30:04.886Z,17.889999
2023-09-17T01:33:30.174Z,17.870001
2023-09-17T01:36:55.316Z,17.809999
2023-09-17T01:40:20.532Z,17.75
2023-09-17T01:43:45.980Z,17.700001
2023-09-17T01:47:10.896Z,17.690001
2023-09-17T01:50:36.097Z,17.690001
2023-09-17T01:54:01.288Z,17.68
2023-09-17T01:57:26.490Z,17.65
2023-09-17T02:00:51.745Z,17.629999
2023-09-17T02:04:16.934Z,17.59
2023-09-17T02:07:42.111Z,17.530001
2023-09-17T02:11:07.318Z,17.5
2023-09-17T02:14:32.506Z,17.48
2023-09-17T02:17:57.787Z,17.440001
2023-09-17T02:21:22.924Z,17.42
2023-09-17T02:24:48.115Z,17.379999
2023-09-17T02:28:13.312Z,17.360001
2023-09-17T02:31:38.575Z,17.360001
2023-09-17T02:35:03.709Z,17.379999
2023-09-17T02:38:28.856Z,17.43
2023-09-17T02:41:54.039Z,17.48
2023-09-17T02:45:19.225Z,17.559999
2023-09-17T02:48:44.414Z,17.67
2023-09-17T02:52:09.648Z,17.790001
2023-09-17T02:55:34.855Z,17.9
2023-09-17T02:59:00.042Z,18.02
2023-09-17T03:02:25.295Z,18.129999
2023-09-17T03:05:50.416Z,18.24
2023-09-17T03:09:15.637Z,18.33
2023-09-17T03:12:40.794Z,18.4
2023-09-17T03:16:05.966Z,18.450001
2023-09-17T03:19:31.203Z,18.469999
2023-09-17T03:22:56.337Z,18.51
2023-09-17T03:26:21.565Z,18.51
2023-09-17T03:29:46.718Z,18.52
2023-09-17T03:33:11.988Z,18.530001
2023-09-17T03:36:37.149Z,18.530001
2023-09-17T03:40:02.354Z,18.52
2023-09-17T03:43:27.653Z,18.52
2023-09-17T03:46:52.865Z,18.540001
2023-09-17T03:50:19.982Z,18.58
2023-09-17T03:53:43.113Z,18.6
2023-09-17T03:57:08.324Z,18.610001
2023-09-17T04:00:33.569Z,18.629999
2023-09-17T04:03:58.767Z,18.65
2023-09-17T04:07:23.933Z,18.66
2023-09-17T04:10:49.179Z,18.690001
2023-09-17T04:14:14.360Z,18.709999
2023-09-17T04:17:39.615Z,18.76
2023-09-17T04:21:04.729Z,18.799999
2023-09-17T04:24:29.913Z,18.77
2023-09-17T04:27:55.106Z,18.76
2023-09-17T04:31:20.373Z,18.76
2023-09-17T04:34:45.628Z,18.77
2023-09-17T04:38:10.735Z,18.799999
2023-09-17T04:41:35.970Z,18.83
2023-09-17T04:45:01.133Z,18.860001
2023-09-17T04:48:26.323Z,18.91
2023-09-17T04:51:51.545Z,18.93
2023-09-17T04:55:16.697Z,18.959999
2023-09-17T04:58:41.926Z,19.01
2023-09-17T05:02:07.184Z,19.049999
2023-09-17T05:05:32.276Z,19.08
2023-09-17T05:08:57.524Z,19.120001
2023-09-17T05:12:22.680Z,19.139999
2023-09-17T05:15:47.919Z,19.18
2023-09-17T05:19:13.097Z,19.23
2023-09-17T05:22:38.347Z,19.290001
2023-09-17T05:26:03.542Z,19.34
2023-09-17T05:29:28.773Z,19.370001
2023-09-17T05:32:53.984Z,19.42
2023-09-17T05:36:19.205Z,19.450001
2023-09-17T05:39:44.368Z,19.49
2023-09-17T05:43:09.664Z,19.51
2023-09-17T05:46:34.912Z,19.530001
2023-09-17T05:50:00.170Z,19.549999
2023-09-17T05:53:25.257Z,19.559999
2023-09-17T05:56:50.453Z,19.559999
2023-09-17T06:00:15.760Z,19.6
2023-09-17T06:03:40.953Z,19.65
2023-09-17T06:07:06.135Z,19.719999
2023-09-17T06:10:31.337Z,19.799999
2023-09-17T06:13:56.554Z,19.870001
2023-09-17T06:17:21.772Z,19.93
2023-09-17T06:20:46.903Z,20.01
2023-09-17T06:24:12.105Z,20.07
2023-09-17T06:27:37.314Z,20.129999
2023-09-17T06:31:02.539Z,20.209999
2023-09-17T06:34:27.744Z,20.309999
2023-09-17T06:37:52.986Z,20.360001
2023-09-17T06:41:18.148Z,20.42
2023-09-17T06:44:43.420Z,20.469999
2023-09-17T06:48:08.631Z,20.530001
2023-09-17T06:51:33.849Z,20.540001
2023-09-17T06:54:59.001Z,20.559999
2023-09-17T06:58:24.208Z,20.610001
2023-09-17T07:01:49.444Z,20.65
2023-09-17T07:05:14.718Z,20.73
2023-09-17T07:08:39.889Z,20.83
2023-09-17T07:12:05.047Z,20.879999
2023-09-17T07:15:30.241Z,20.950001
2023-09-17T07:18:55.463Z,21.049999
2023-09-17T07:22:20.719Z,21.139999
2023-09-17T07:25:50.402Z,21.200001
2023-09-17T07:29:15.614Z,21.26
2023-09-17T07:32:40.823Z,21.290001
2023-09-17T07:36:06.003Z,21.34
2023-09-17T07:39:31.170Z,21.389999
2023-09-17T07:42:56.404Z,21.459999
2023-09-17T07:46:22.439Z,21.51
2023-09-17T07:49:47.624Z,21.59
2023-09-17T07:53:12.793Z,21.67
2023-09-17T07:56:37.996Z,21.76
2023-09-17T08:00:03.216Z,21.85
2023-09-17T08:03:28.542Z,21.940001
2023-09-17T08:06:53.741Z,22.049999
2023-09-17T08:10:18.939Z,22.15
2023-09-17T08:13:44.175Z,22.23
2023-09-17T08:17:09.433Z,22.33
2023-09-17T08:20:34.513Z,22.42
2023-09-17T08:23:59.684Z,22.540001
2023-09-17T08:27:24.873Z,22.629999
2023-09-17T08:30:50.082Z,22.68
2023-09-17T08:34:15.248Z,22.74
2023-09-17T08:37:40.470Z,22.790001
2023-09-17T08:41:05.638Z,22.83
2023-09-17T08:44:30.814Z,22.860001
2023-09-17T08:47:56.091Z,22.9
2023-09-17T08:51:21.317Z,22.959999
2023-09-17T08:54:46.489Z,23.02
2023-09-17T08:58:11.701Z,23.1
2023-09-17T09:01:37.001Z,23.16
2023-09-17T09:05:02.976Z,23.27
2023-09-17T09:08:28.258Z,23.370001
2023-09-17T09:11:53.428Z,23.5
2023-09-17T09:15:18.730Z,23.68
2023-09-17T09:18:43.917Z,23.84
2023-09-17T09:22:09.104Z,24.01
2023-09-17T09:25:42.637Z,24.15
2023-09-17T09:29:17.919Z,24.280001
2023-09-17T09:32:48.869Z,24.41
2023-09-17T09:36:19.387Z,24.540001
2023-09-17T09:39:53.193Z,24.66
2023-09-17T09:43:31.006Z,24.77
2023-09-17T09:47:02.196Z,24.9
2023-09-17T09:50:35.118Z,25
2023-09-17T09:54:07.069Z,25.08
2023-09-17T09:57:41.186Z,25.190001
2023-09-17T10:01:12.073Z,25.290001
2023-09-17T10:04:39.277Z,25.35
2023-09-17T10:08:04.480Z,25.42
2023-09-17T10:11:29.744Z,25.49
2023-09-17T10:14:55.323Z,25.559999
2023-09-17T10:18:20.675Z,25.620001
2023-09-17T10:21:45.869Z,25.68
2023-09-17T10:25:11.144Z,25.809999
2023-09-17T10:28:36.333Z,25.9
2023-09-17T10:32:01.562Z,26.01
2023-09-17T10:35:26.743Z,26.120001
2023-09-17T10:38:51.954Z,26.129999
2023-09-17T10:42:17.101Z,26.09
2023-09-17T10:45:42.290Z,26.1
2023-09-17T10:49:07.506Z,26.08
2023-09-17T10:52:32.738Z,26.030001
2023-09-17T10:55:57.937Z,26.01
2023-09-17T10:59:23.075Z,26.040001
2023-09-17T11:02:48.327Z,26.190001
2023-09-17T11:06:13.486Z,26.33
2023-09-17T11:09:38.691Z,26.51
2023-09-17T11:13:03.837Z,26.65
2023-09-17T11:16:29.059Z,26.75
2023-09-17T11:19:54.310Z,26.809999
2023-09-17T11:23:19.515Z,26.870001
2023-09-17T11:26:44.721Z,26.940001
2023-09-17T11:30:09.881Z,27.01
2023-09-17T11:33:35.093Z,27.1
2023-09-17T11:37:00.303Z,27.15
2023-09-17T11:40:25.503Z,27.200001
2023-09-17T11:43:50.997Z,27.25
2023-09-17T11:47:16.506Z,27.290001
2023-09-17T11:50:41.653Z,27.309999
2023-09-17T11:54:06.867Z,27.35
2023-09-17T11:57:32.089Z,27.4
2023-09-17T12:00:57.379Z,27.440001
2023-09-17T12:04:22.581Z,27.469999
2023-09-17T12:07:55.079Z,27.5
2023-09-17T12:11:18.740Z,27.49
2023-09-17T12:14:43.962Z,27.51
2023-09-17T12:18:10.325Z,27.540001
2023-09-17T12:21:35.490Z,27.559999
2023-09-17T12:25:00.859Z,27.59
2023-09-17T12:28:26.077Z,27.59
2023-09-17T12:31:51.315Z,27.59
2023-09-17T12:35:16.655Z,27.59
2023-09-17T12:38:41.912Z,27.58
2023-09-17T12:42:07.188Z,27.559999
2023-09-17T12:45:32.479Z,27.549999
2023-09-17T12:48:57.809Z,27.549999
2023-09-17T12:52:23.006Z,27.52
2023-09-17T12:55:48.281Z,27.51
2023-09-17T12:59:13.601Z,27.51
2023-09-17T13:02:38.923Z,27.48
2023-09-17T13:06:04.050Z,27.450001
2023-09-17T13:09:29.370Z,27.41
2023-09-17T13:12:54.639Z,27.370001
2023-09-17T13:16:19.976Z,27.34
2023-09-17T13:19:45.224Z,27.309999
2023-09-17T13:23:10.498Z,27.35
2023-09-17T13:26:35.776Z,27.360001
2023-09-17T13:30:01.006Z,27.370001
2023-09-17T13:33:26.260Z,27.370001
2023-09-17T13:36:51.557Z,27.389999
2023-09-17T13:40:16.860Z,27.389999
2023-09-17T13:43:42.226Z,27.4
2023-09-17T13:47:07.559Z,27.42
2023-09-17T13:50:32.828Z,27.440001
2023-09-17T13:53:58.136Z,27.42
2023-09-17T13:57:23.483Z,27.41
2023-09-17T14:00:48.929Z,27.42
2023-09-17T14:04:14.229Z,27.42
2023-09-17T14:07:49.254Z,27.4
2023-09-17T14:11:14.589Z,27.379999
2023-09-17T14:14:39.895Z,27.360001
2023-09-17T14:18:05.341Z,27.34
2023-09-17T14:21:31.219Z,27.34
2023-09-17T14:24:56.547Z,27.32
2023-09-17T14:28:21.835Z,27.299999
2023-09-17T14:31:47.104Z,27.280001
2023-09-17T14:35:12.412Z,27.280001
2023-09-17T14:38:37.684Z,27.26
2023-09-17T14:42:02.998Z,27.25
2023-09-17T14:45:28.273Z,27.209999
2023-09-17T14:48:54.000Z,27.16
2023-09-17T14:52:18.890Z,27.139999
2023-09-17T14:55:44.124Z,27.129999
2023-09-17T14:59:09.503Z,27.09
2023-09-17T15:02:34.878Z,27.040001
2023-09-17T15:06:00.041Z,26.969999
2023-09-17T15:09:26.894Z,26.92
2023-09-17T15:46:27.316Z,24.209999
2023-09-17T15:49:52.674Z,25.08
2023-09-17T15:53:18.124Z,25.23
2023-09-17T15:56:43.537Z,25.35
2023-09-17T16:00:08.874Z,25.440001
2023-09-17T16:03:34.243Z,25.48
2023-09-17T16:06:59.727Z,25.51
2023-09-17T16:10:25.011Z,25.52
2023-09-17T16:13:50.726Z,25.51
2023-09-17T16:17:15.655Z,25.5
2023-09-17T16:20:40.884Z,25.469999
2023-09-17T16:24:06.171Z,25.43
2023-09-17T16:27:31.461Z,25.389999
2023-09-17T16:30:56.798Z,25.35
2023-09-17T16:34:22.130Z,25.299999
2023-09-17T16:37:48.303Z,25.26
2023-09-17T16:41:13.695Z,25.200001
2023-09-17T16:44:38.918Z,25.15
2023-09-17T16:48:04.319Z,25.09
2023-09-17T16:51:34.377Z,25.02
2023-09-17T16:55:00.183Z,24.940001
2023-09-17T16:58:25.410Z,24.870001
2023-09-17T17:01:50.964Z,24.82
2023-09-17T17:05:16.520Z,24.74
2023-09-17T17:08:42.027Z,24.66
2023-09-17T17:12:07.451Z,24.57
2023-09-17T17:15:32.797Z,24.450001
2023-09-17T17:18:59.028Z,24.35
2023-09-17T17:22:24.312Z,24.23
2023-09-17T17:25:49.851Z,24.120001
2023-09-17T17:29:15.227Z,24
2023-09-17T17:32:40.536Z,23.889999
2023-09-17T17:36:05.894Z,23.780001
2023-09-17T17:39:31.243Z,23.700001
2023-09-17T17:42:56.588Z,23.6
2023-09-17T17:46:22.029Z,23.48
2023-09-17T17:49:47.309Z,23.370001
2023-09-17T17:53:12.610Z,23.25
2023-09-17T17:56:37.918Z,23.15
2023-09-17T18:00:03.301Z,23.09
2023-09-17T18:03:28.900Z,23.01
2023-09-17T18:06:53.919Z,22.92
2023-09-17T18:10:19.203Z,22.82
2023-09-17T18:13:44.625Z,22.74
2023-09-17T18:17:10.024Z,22.700001
2023-09-17T18:20:35.476Z,22.65
2023-09-17T18:24:00.902Z,22.59
2023-09-17T18:27:26.310Z,22.5
2023-09-17T18:30:52.021Z,22.48
2023-09-17T18:34:17.628Z,22.450001
2023-09-17T18:37:43.345Z,22.43
2023-09-17T18:41:08.769Z,22.42
2023-09-17T18:44:34.251Z,22.41
2023-09-17T18:48:00.322Z,22.389999
2023-09-17T18:51:27.376Z,22.35
2023-09-17T18:54:52.954Z,22.34
2023-09-17T18:58:18.606Z,22.290001
2023-09-17T19:01:44.399Z,22.25
2023-09-17T19:05:10.067Z,22.200001
2023-09-17T19:08:35.693Z,22.15
2023-09-17T19:12:01.189Z,22.120001
2023-09-17T19:15:26.468Z,22.120001
2023-09-17T19:18:51.909Z,22.09
2023-09-17T19:22:17.303Z,22.07
2023-09-17T19:25:42.779Z,22.030001
2023-09-17T19:29:08.254Z,21.98
2023-09-17T19:32:33.708Z,21.91
2023-09-17T19:35:59.047Z,21.870001
2023-09-17T19:39:24.491Z,21.85
2023-09-17T19:42:49.911Z,21.82
2023-09-17T19:46:15.428Z,21.790001
2023-09-17T19:49:40.803Z,21.77
2023-09-17T19:53:06.310Z,21.76
2023-09-17T19:56:31.773Z,21.73
2023-09-17T19:59:57.220Z,21.709999
2023-09-17T20:03:22.756Z,21.709999
2023-09-17T20:06:54.929Z,21.690001
2023-09-17T20:10:13.374Z,21.67
2023-09-17T20:13:38.732Z,21.629999
2023-09-17T20:17:04.220Z,21.6
2023-09-17T20:20:29.618Z,21.59
2023-09-17T20:23:54.860Z,21.58
2023-09-17T20:27:20.210Z,21.57
2023-09-17T20:30:45.634Z,21.57
2023-09-17T20:34:10.999Z,21.540001
2023-09-17T20:37:36.405Z,21.5
2023-09-17T20:41:01.776Z,21.440001
2023-09-17T20:44:27.124Z,21.389999
2023-09-17T20:47:52.509Z,21.35
2023-09-17T20:51:17.897Z,21.299999
2023-09-17T20:54:43.271Z,21.25
2023-09-17T20:58:08.588Z,21.209999
2023-09-17T21:01:33.973Z,21.16
2023-09-17T21:04:59.378Z,21.129999
2023-09-17T21:08:24.768Z,21.059999
2023-09-17T21:11:50.144Z,20.959999
2023-09-17T21:15:15.435Z,20.91
2023-09-17T21:18:40.829Z,20.85
2023-09-17T21:22:08.400Z,20.809999
2023-09-17T21:25:31.620Z,20.77
2023-09-17T21:28:57.047Z,20.75
2023-09-17T21:32:22.377Z,20.719999
2023-09-17T21:35:47.735Z,20.709999
2023-09-17T21:39:13.103Z,20.690001
2023-09-17T21:42:38.460Z,20.610001
2023-09-17T21:46:03.865Z,20.549999
2023-09-17T21:49:29.158Z,20.530001
2023-09-17T21:52:54.569Z,20.530001
2023-09-17T21:56:19.912Z,20.530001
2023-09-17T21:59:45.218Z,20.559999
2023-09-17T22:03:10.782Z,20.58
2023-09-17T22:06:35.919Z,20.620001
2023-09-17T22:10:01.209Z,20.690001
2023-09-17T22:13:26.510Z,20.719999
2023-09-17T22:16:51.944Z,20.75
2023-09-17T22:20:17.440Z,20.73
2023-09-17T22:23:42.724Z,20.709999
2023-09-17T22:27:08.068Z,20.690001
2023-09-17T22:30:33.379Z,20.629999
2023-09-17T22:33:58.695Z,20.6
2023-09-17T22:37:24.109Z,20.549999
2023-09-17T22:40:49.399Z,20.540001
2023-09-17T22:44:23.335Z,20.530001
2023-09-17T22:47:40.026Z,20.5
2023-09-17T22:51:05.370Z,20.469999
2023-09-17T22:54:30.689Z,20.43
2023-09-17T22:57:55.960Z,20.389999
2023-09-17T23:01:21.356Z,20.35
2023-09-17T23:04:46.650Z,20.299999
2023-09-17T23:08:11.988Z,20.190001
2023-09-17T23:11:37.338Z,20.09
2023-09-17T23:15:02.632Z,20.01
2023-09-17T23:18:27.937Z,19.959999
2023-09-17T23:21:53.269Z,19.91
2023-09-17T23:25:18.663Z,19.879999
2023-09-17T23:28:44.021Z,19.860001
2023-09-17T23:32:09.314Z,19.85
2023-09-17T23:35:34.641Z,19.85
2023-09-17T23:38:59.911Z,19.83
2023-09-17T23:42:25.247Z,19.82
2023-09-17T23:45:50.633Z,19.82
2023-09-17T23:49:15.857Z,19.84
2023-09-17T23:52:41.215Z,19.870001
2023-09-17T23:56:06.540Z,19.889999
2023-09-17T23:59:31.913Z,19.92
